AAN107 LEFM-LECU
Flight info
| Callsign | AAN107 |
|---|---|
| Flight time | 0h 22m |
| Altitude | 5500 |
| Route | VFR |
| Aircraft | C172/L-SDFE/C |
Departure
| Time | 2026-05-04 12:48 |
|---|---|
| Airport | Fuentemilanos Airfield (LEFM) |
Arrival
| Time | 2026-05-04 13:11 |
|---|---|
| Airport | Madrid-Cuatro Vientos Airport (LECU) |
| Time | Latitude | Longitude | Altitude | Speed | Heading |
|---|---|---|---|---|---|
| 2026-05-04 12:35 | 40.88931 | -4.24045 | 3311 ft | 0 kts | 63° |
| 2026-05-04 12:43 | 40.88932 | -4.24044 | 3314 ft | 1 kts | 60° |
| 2026-05-04 12:44 | 40.88934 | -4.24003 | 3308 ft | 9 kts | 83° |
| 2026-05-04 12:44 | 40.88995 | -4.23993 | 3309 ft | 12 kts | 333° |
| 2026-05-04 12:44 | 40.89068 | -4.24043 | 3310 ft | 12 kts | 330° |
| 2026-05-04 12:44 | 40.89142 | -4.24095 | 3311 ft | 13 kts | 332° |
| 2026-05-04 12:45 | 40.89216 | -4.24154 | 3311 ft | 7 kts | 242° |
| 2026-05-04 12:45 | 40.89213 | -4.24156 | 3311 ft | 0 kts | 160° |
| 2026-05-04 12:45 | 40.89212 | -4.24156 | 3311 ft | 1 kts | 137° |
| 2026-05-04 12:45 | 40.89200 | -4.24139 | 3310 ft | 0 kts | 152° |
| 2026-05-04 12:46 | 40.89197 | -4.24137 | 3310 ft | 6 kts | 153° |
| 2026-05-04 12:47 | 40.89025 | -4.24010 | 3309 ft | 50 kts | 148° |
| 2026-05-04 12:47 | 40.88611 | -4.23709 | 3333 ft | 80 kts | 152° |
| 2026-05-04 12:47 | 40.88093 | -4.23345 | 3428 ft | 86 kts | 164° |
| 2026-05-04 12:47 | 40.87553 | -4.23458 | 3560 ft | 77 kts | 227° |
| 2026-05-04 12:48 | 40.87104 | -4.23817 | 3644 ft | 88 kts | 183° |
| 2026-05-04 12:48 | 40.86491 | -4.23636 | 3745 ft | 89 kts | 170° |
| 2026-05-04 12:48 | 40.86092 | -4.23465 | 3838 ft | 93 kts | 160° |
| 2026-05-04 12:48 | 40.85527 | -4.23113 | 4005 ft | 92 kts | 159° |
| 2026-05-04 12:49 | 40.84909 | -4.22840 | 4094 ft | 94 kts | 167° |
| 2026-05-04 12:49 | 40.84063 | -4.22506 | 4246 ft | 101 kts | 166° |
| 2026-05-04 12:49 | 40.83595 | -4.22304 | 4332 ft | 107 kts | 165° |
| 2026-05-04 12:49 | 40.82889 | -4.21989 | 4520 ft | 106 kts | 167° |
| 2026-05-04 12:50 | 40.82200 | -4.21726 | 4705 ft | 103 kts | 170° |
| 2026-05-04 12:50 | 40.81506 | -4.21461 | 4893 ft | 104 kts | 169° |
| 2026-05-04 12:50 | 40.80814 | -4.21305 | 5057 ft | 101 kts | 178° |
| 2026-05-04 12:50 | 40.80112 | -4.21151 | 5238 ft | 103 kts | 178° |
| 2026-05-04 12:51 | 40.79415 | -4.20999 | 5403 ft | 99 kts | 175° |
| 2026-05-04 12:51 | 40.78725 | -4.20855 | 5584 ft | 103 kts | 179° |
| 2026-05-04 12:51 | 40.78011 | -4.20690 | 5769 ft | 105 kts | 179° |
| 2026-05-04 12:51 | 40.77287 | -4.20524 | 5945 ft | 106 kts | 178° |
| 2026-05-04 12:52 | 40.76582 | -4.20354 | 6123 ft | 101 kts | 177° |
| 2026-05-04 12:52 | 40.75903 | -4.20196 | 6290 ft | 97 kts | 178° |
| 2026-05-04 12:52 | 40.75256 | -4.20031 | 6457 ft | 93 kts | 176° |
| 2026-05-04 12:52 | 40.74619 | -4.19870 | 6623 ft | 93 kts | 178° |
| 2026-05-04 12:53 | 40.74020 | -4.19565 | 6789 ft | 99 kts | 139° |
| 2026-05-04 12:53 | 40.73566 | -4.18891 | 6962 ft | 98 kts | 138° |
| 2026-05-04 12:53 | 40.73097 | -4.18225 | 7136 ft | 100 kts | 137° |
| 2026-05-04 12:53 | 40.72611 | -4.17528 | 7255 ft | 107 kts | 140° |
| 2026-05-04 12:54 | 40.72089 | -4.16786 | 7360 ft | 112 kts | 138° |
| 2026-05-04 12:54 | 40.71553 | -4.16024 | 7480 ft | 115 kts | 138° |
| 2026-05-04 12:54 | 40.70961 | -4.15317 | 7550 ft | 118 kts | 147° |
| 2026-05-04 12:54 | 40.70294 | -4.14646 | 7601 ft | 124 kts | 149° |
| 2026-05-04 12:55 | 40.69612 | -4.13963 | 7597 ft | 120 kts | 149° |
| 2026-05-04 12:55 | 40.68962 | -4.13284 | 7602 ft | 120 kts | 143° |
| 2026-05-04 12:55 | 40.68372 | -4.12497 | 7601 ft | 122 kts | 140° |
| 2026-05-04 12:55 | 40.67775 | -4.11706 | 7598 ft | 121 kts | 140° |
| 2026-05-04 12:56 | 40.67162 | -4.10938 | 7598 ft | 122 kts | 141° |
| 2026-05-04 12:56 | 40.66545 | -4.10170 | 7599 ft | 122 kts | 142° |
| 2026-05-04 12:56 | 40.65928 | -4.09410 | 7600 ft | 123 kts | 142° |
| 2026-05-04 12:56 | 40.65293 | -4.08652 | 7603 ft | 124 kts | 143° |
| 2026-05-04 12:57 | 40.64657 | -4.07891 | 7602 ft | 123 kts | 143° |
| 2026-05-04 12:57 | 40.64025 | -4.07130 | 7598 ft | 123 kts | 142° |
| 2026-05-04 12:57 | 40.63392 | -4.06371 | 7599 ft | 123 kts | 142° |
| 2026-05-04 12:57 | 40.62759 | -4.05606 | 7599 ft | 124 kts | 142° |
| 2026-05-04 12:58 | 40.62123 | -4.04840 | 7602 ft | 124 kts | 143° |
| 2026-05-04 12:58 | 40.61484 | -4.04070 | 7598 ft | 124 kts | 142° |
| 2026-05-04 12:58 | 40.60824 | -4.03343 | 7598 ft | 123 kts | 147° |
| 2026-05-04 12:58 | 40.60148 | -4.02659 | 7594 ft | 122 kts | 151° |
| 2026-05-04 12:59 | 40.59442 | -4.02045 | 7594 ft | 121 kts | 152° |
| 2026-05-04 12:59 | 40.58747 | -4.01435 | 7594 ft | 121 kts | 153° |
| 2026-05-04 12:59 | 40.58046 | -4.00822 | 7592 ft | 121 kts | 152° |
| 2026-05-04 12:59 | 40.57341 | -4.00197 | 7593 ft | 122 kts | 151° |
| 2026-05-04 13:00 | 40.56638 | -3.99575 | 7595 ft | 122 kts | 152° |
| 2026-05-04 13:00 | 40.55937 | -3.98948 | 7594 ft | 122 kts | 154° |
| 2026-05-04 13:00 | 40.55237 | -3.98316 | 7593 ft | 123 kts | 152° |
| 2026-05-04 13:00 | 40.54537 | -3.97679 | 7596 ft | 122 kts | 152° |
| 2026-05-04 13:01 | 40.53843 | -3.97041 | 7589 ft | 120 kts | 152° |
| 2026-05-04 13:01 | 40.53162 | -3.96413 | 7585 ft | 119 kts | 152° |
| 2026-05-04 13:01 | 40.52482 | -3.95783 | 7585 ft | 120 kts | 151° |
| 2026-05-04 13:01 | 40.51804 | -3.95155 | 7586 ft | 120 kts | 152° |
| 2026-05-04 13:02 | 40.51130 | -3.94526 | 7586 ft | 121 kts | 151° |
| 2026-05-04 13:02 | 40.50433 | -3.93867 | 7593 ft | 123 kts | 150° |
| 2026-05-04 13:02 | 40.49741 | -3.93220 | 7590 ft | 124 kts | 152° |
| 2026-05-04 13:02 | 40.49036 | -3.92555 | 7586 ft | 125 kts | 152° |
| 2026-05-04 13:03 | 40.48323 | -3.91882 | 7521 ft | 129 kts | 152° |
| 2026-05-04 13:03 | 40.47570 | -3.91181 | 7405 ft | 135 kts | 152° |
| 2026-05-04 13:03 | 40.46794 | -3.90458 | 7281 ft | 138 kts | 153° |
| 2026-05-04 13:03 | 40.45978 | -3.89818 | 7160 ft | 135 kts | 163° |
| 2026-05-04 13:04 | 40.45112 | -3.89345 | 7016 ft | 136 kts | 164° |
| 2026-05-04 13:04 | 40.44230 | -3.88859 | 6851 ft | 138 kts | 164° |
| 2026-05-04 13:04 | 40.43340 | -3.88370 | 6673 ft | 139 kts | 164° |
| 2026-05-04 13:04 | 40.42458 | -3.87877 | 6509 ft | 140 kts | 164° |
| 2026-05-04 13:05 | 40.41560 | -3.87362 | 6335 ft | 141 kts | 164° |
| 2026-05-04 13:05 | 40.40662 | -3.86851 | 6162 ft | 142 kts | 164° |
| 2026-05-04 13:05 | 40.39750 | -3.86336 | 5980 ft | 143 kts | 164° |
| 2026-05-04 13:05 | 40.38838 | -3.85822 | 5809 ft | 143 kts | 164° |
| 2026-05-04 13:06 | 40.37985 | -3.85161 | 5624 ft | 150 kts | 134° |
| 2026-05-04 13:06 | 40.37584 | -3.83878 | 5443 ft | 154 kts | 111° |
| 2026-05-04 13:06 | 40.37175 | -3.82600 | 5270 ft | 151 kts | 123° |
| 2026-05-04 13:06 | 40.36663 | -3.81400 | 5024 ft | 147 kts | 124° |
| 2026-05-04 13:07 | 40.36196 | -3.80260 | 4736 ft | 139 kts | 121° |
| 2026-05-04 13:07 | 40.35940 | -3.79039 | 4435 ft | 138 kts | 108° |
| 2026-05-04 13:07 | 40.35700 | -3.77845 | 4123 ft | 133 kts | 109° |
| 2026-05-04 13:07 | 40.35476 | -3.76679 | 3820 ft | 131 kts | 108° |
| 2026-05-04 13:08 | 40.35255 | -3.75539 | 3517 ft | 129 kts | 108° |
| 2026-05-04 13:08 | 40.35061 | -3.74474 | 3464 ft | 111 kts | 98° |
| 2026-05-04 13:08 | 40.35387 | -3.73742 | 3464 ft | 90 kts | 13° |
| 2026-05-04 13:08 | 40.35955 | -3.73332 | 3471 ft | 97 kts | 21° |
| 2026-05-04 13:09 | 40.36652 | -3.72857 | 3166 ft | 128 kts | 19° |
| 2026-05-04 13:09 | 40.37490 | -3.72742 | 2842 ft | 112 kts | 321° |
| 2026-05-04 13:09 | 40.37669 | -3.73464 | 2850 ft | 77 kts | 253° |
| 2026-05-04 13:09 | 40.37478 | -3.74084 | 2886 ft | 71 kts | 248° |
| 2026-05-04 13:10 | 40.37253 | -3.74677 | 2920 ft | 70 kts | 246° |
| 2026-05-04 13:10 | 40.37090 | -3.75243 | 2913 ft | 65 kts | 249° |
| 2026-05-04 13:10 | 40.36967 | -3.75849 | 2842 ft | 71 kts | 260° |
| 2026-05-04 13:10 | 40.36955 | -3.76511 | 2689 ft | 72 kts | 272° |
| 2026-05-04 13:11 | 40.37000 | -3.77115 | 2429 ft | 62 kts | 270° |
| 2026-05-04 13:11 | 40.37023 | -3.77605 | 2286 ft | 47 kts | 266° |
| 2026-05-04 13:11 | 40.37034 | -3.77967 | 2262 ft | 25 kts | 269° |
| 2026-05-04 13:11 | 40.37045 | -3.78140 | 2263 ft | 16 kts | 281° |
| 2026-05-04 13:12 | 40.37053 | -3.78258 | 2262 ft | 11 kts | 245° |
| 2026-05-04 13:12 | 40.37038 | -3.78277 | 2261 ft | 0 kts | 197° |
| 2026-05-04 13:12 | 40.37034 | -3.78279 | 2261 ft | 1 kts | 195° |
| 2026-05-04 13:12 | 40.37029 | -3.78279 | 2261 ft | 1 kts | 162° |
| 2026-05-04 13:13 | 40.37010 | -3.78229 | 2262 ft | 14 kts | 107° |
| 2026-05-04 13:13 | 40.36967 | -3.78128 | 2264 ft | 12 kts | 117° |
| 2026-05-04 13:13 | 40.36957 | -3.78024 | 2263 ft | 13 kts | 93° |
| 2026-05-04 13:13 | 40.36919 | -3.77960 | 2262 ft | 10 kts | 161° |
| 2026-05-04 13:14 | 40.36904 | -3.77901 | 2262 ft | 1 kts | 68° |
| 2026-05-04 13:14 | 40.36915 | -3.77893 | 2262 ft | 2 kts | 354° |
| 2026-05-04 13:14 | 40.36919 | -3.77892 | 2262 ft | 0 kts | 15° |